Time;durP1;ratioP1;P1;durP2;ratioP2;P2;SDS_P1;SDS_P2;PMS_P1;PMS_P2;Temp;Humidity;BMP_temperature;BMP_pressure;BME280_temperature;BME280_humidity;BME280_pressure;Samples;Min_cycle;Max_cycle;Signal;HPM_P1;HPM_P2
2021/12/26 00:00:40;;;;;;;;;;;9.80;99.90;;;;;;5073168;28;19916;-59
2021/12/26 00:03:05;;;;;;;;;;;9.80;99.90;;;;;;5072236;28;19924;-59
2021/12/26 00:05:31;;;;;;;;;;;9.80;99.90;;;;;;5072161;28;19909;-60
2021/12/26 00:07:56;;;;;;;;;;;9.80;99.90;;;;;;5072466;28;19913;-59
2021/12/26 00:10:23;;;;;;;;;;;9.80;99.90;;;;;;5071526;28;19928;-59
2021/12/26 00:12:49;;;;;;;;;;;9.80;99.90;;;;;;5072700;28;19966;-60
2021/12/26 00:15:15;;;;;;;;;;;9.80;99.90;;;;;;5073308;28;19920;-59
2021/12/26 00:17:41;;;;;;;;;;;9.70;99.90;;;;;;5070954;28;19912;-59
2021/12/26 00:20:09;;;;;;;;;;;9.70;99.90;;;;;;5072768;28;19970;-59
2021/12/26 00:22:35;;;;;;;;;;;9.70;99.90;;;;;;5073029;28;19995;-59
2021/12/26 00:25:01;;;;;;;;;;;9.80;99.90;;;;;;5072839;28;19973;-59
2021/12/26 00:27:27;;;;;;;;;;;9.80;99.90;;;;;;5073037;28;19916;-59
2021/12/26 00:29:53;;;;;;;;;;;9.80;99.90;;;;;;5071281;28;19978;-59
2021/12/26 00:32:18;;;;;;;;;;;9.80;99.90;;;;;;5071020;28;20481;-60
2021/12/26 00:34:44;;;;;;;;;;;9.80;99.90;;;;;;5072878;28;19913;-60
2021/12/26 00:37:11;;;;;;;;;;;9.80;99.90;;;;;;5072744;28;19913;-60
2021/12/26 00:39:36;;;;;;;;;;;9.70;99.90;;;;;;5072774;28;19912;-61
2021/12/26 00:42:02;;;;;;;;;;;9.80;99.90;;;;;;5071070;28;20415;-60
2021/12/26 00:44:28;;;;;;;;;;;9.70;99.90;;;;;;5072698;28;19913;-59
2021/12/26 00:46:53;;;;;;;;;;;9.70;99.90;;;;;;5072449;28;19916;-60
2021/12/26 00:49:20;;;;;;;;;;;9.70;99.90;;;;;;5071434;28;20340;-59
2021/12/26 00:51:46;;;;;;;;;;;9.80;99.90;;;;;;5072293;28;20403;-60
2021/12/26 00:54:12;;;;;;;;;;;9.80;99.90;;;;;;5072617;28;19912;-59
2021/12/26 00:56:37;;;;;;;;;;;9.80;99.90;;;;;;5070926;28;19917;-59
2021/12/26 00:59:03;;;;;;;;;;;9.70;99.90;;;;;;5072904;28;19916;-59
2021/12/26 01:01:29;;;;;;;;;;;9.70;99.90;;;;;;5072195;28;20034;-59
2021/12/26 01:03:54;;;;;;;;;;;9.70;99.90;;;;;;5073101;28;19980;-59
2021/12/26 01:06:20;;;;;;;;;;;9.70;99.90;;;;;;5076020;28;20376;-59
2021/12/26 01:08:49;;;;;;;;;;;9.70;99.90;;;;;;5074429;28;20328;-59
2021/12/26 01:11:24;;;;;;;;;;;9.70;99.90;;;;;;5075105;28;19982;-59
2021/12/26 01:13:50;;;;;;;;;;;9.70;99.90;;;;;;5075841;28;19948;-59
2021/12/26 01:16:18;;;;;;;;;;;9.70;99.90;;;;;;5076086;28;19954;-59
2021/12/26 01:18:46;;;;;;;;;;;9.70;99.90;;;;;;5076315;28;19908;-60
2021/12/26 01:21:20;;;;;;;;;;;9.70;99.90;;;;;;5059944;28;19917;-59
2021/12/26 01:23:49;;;;;;;;;;;9.70;99.90;;;;;;5070256;28;19999;-58
2021/12/26 01:26:15;;;;;;;;;;;9.70;99.90;;;;;;5075002;28;19913;-59
2021/12/26 01:28:40;;;;;;;;;;;9.70;99.90;;;;;;5074486;28;20365;-59
2021/12/26 01:31:06;;;;;;;;;;;9.80;99.90;;;;;;5075837;28;19916;-59
2021/12/26 01:33:32;;;;;;;;;;;9.80;99.90;;;;;;5075521;28;19916;-60
2021/12/26 01:35:58;;;;;;;;;;;9.70;99.90;;;;;;5073462;28;19916;-59
2021/12/26 01:38:23;;;;;;;;;;;9.70;99.90;;;;;;5075754;28;19939;-59
2021/12/26 01:40:51;;;;;;;;;;;9.70;99.90;;;;;;5075797;28;20435;-59
2021/12/26 01:43:19;;;;;;;;;;;9.70;99.90;;;;;;5075559;28;19948;-59
2021/12/26 01:45:45;;;;;;;;;;;9.70;99.90;;;;;;5075493;28;20400;-60
2021/12/26 01:48:12;;;;;;;;;;;9.70;99.90;;;;;;5058251;28;19923;-60
2021/12/26 01:50:38;;;;;;;;;;;9.70;99.90;;;;;;5073751;28;20329;-60
2021/12/26 01:53:05;;;;;;;;;;;9.70;99.90;;;;;;5075178;28;20285;-60
2021/12/26 01:55:45;;;;;;;;;;;9.70;99.90;;;;;;5075101;28;19916;-60
2021/12/26 01:58:16;;;;;;;;;;;9.70;99.90;;;;;;5075074;28;20023;-59
2021/12/26 02:00:43;;;;;;;;;;;9.70;99.90;;;;;;5075594;28;19916;-61
2021/12/26 02:03:08;;;;;;;;;;;9.70;99.90;;;;;;5074286;28;20544;-59
2021/12/26 02:05:34;;;;;;;;;;;9.70;99.90;;;;;;5074112;28;19965;-59
2021/12/26 02:08:00;;;;;;;;;;;9.70;99.90;;;;;;5073562;28;19908;-60
2021/12/26 02:10:25;;;;;;;;;;;9.70;99.90;;;;;;5075254;28;20309;-60
2021/12/26 02:12:51;;;;;;;;;;;9.80;99.90;;;;;;5074831;28;19927;-60
2021/12/26 02:15:17;;;;;;;;;;;9.70;99.90;;;;;;5075195;28;19912;-60
2021/12/26 02:17:42;;;;;;;;;;;9.70;99.90;;;;;;5072753;28;19912;-60
2021/12/26 02:20:17;;;;;;;;;;;9.70;99.90;;;;;;5073434;28;20388;-61
2021/12/26 02:22:47;;;;;;;;;;;9.80;99.90;;;;;;5074622;28;19920;-61
2021/12/26 02:25:28;;;;;;;;;;;9.80;99.90;;;;;;5075362;28;20575;-60
2021/12/26 02:27:54;;;;;;;;;;;9.80;99.90;;;;;;5073574;28;19912;-59
2021/12/26 02:30:20;;;;;;;;;;;9.70;99.90;;;;;;5074818;28;19916;-58
2021/12/26 02:32:47;;;;;;;;;;;9.70;99.90;;;;;;5071712;28;19924;-60
2021/12/26 02:35:14;;;;;;;;;;;9.70;99.90;;;;;;5073422;28;19931;-59
2021/12/26 02:37:39;;;;;;;;;;;9.70;99.90;;;;;;5074295;28;19977;-60
2021/12/26 02:40:05;;;;;;;;;;;9.70;99.90;;;;;;5074676;28;20419;-59
2021/12/26 02:42:31;;;;;;;;;;;9.70;99.90;;;;;;5074805;28;19963;-59
2021/12/26 02:44:56;;;;;;;;;;;9.70;99.90;;;;;;5073226;28;19951;-59
2021/12/26 02:47:33;;;;;;;;;;;9.70;99.90;;;;;;5072194;28;19904;-59
2021/12/26 02:50:03;;;;;;;;;;;9.70;99.90;;;;;;5074207;28;19971;-60
2021/12/26 02:52:29;;;;;;;;;;;9.70;99.90;;;;;;5056351;28;19964;-60
2021/12/26 02:54:57;;;;;;;;;;;9.70;99.90;;;;;;5074348;28;19947;-60
2021/12/26 02:57:22;;;;;;;;;;;9.70;99.90;;;;;;5073898;28;20365;-59
2021/12/26 02:59:48;;;;;;;;;;;9.70;99.90;;;;;;5071894;28;19943;-60
2021/12/26 03:02:13;;;;;;;;;;;9.70;99.90;;;;;;5073764;28;19956;-60
2021/12/26 03:04:39;;;;;;;;;;;9.60;99.90;;;;;;5074202;28;19913;-60
2021/12/26 03:07:04;;;;;;;;;;;9.60;99.90;;;;;;5072449;28;19913;-60
2021/12/26 03:09:33;;;;;;;;;;;9.60;99.90;;;;;;5073848;28;20296;-60
2021/12/26 03:11:59;;;;;;;;;;;9.60;99.90;;;;;;5071469;28;19909;-60
2021/12/26 03:14:24;;;;;;;;;;;9.60;99.90;;;;;;5074027;28;19912;-60
2021/12/26 03:16:50;;;;;;;;;;;9.70;99.90;;;;;;5073720;28;20019;-59
2021/12/26 03:19:16;;;;;;;;;;;9.60;99.90;;;;;;5073732;28;19916;-59
2021/12/26 03:21:42;;;;;;;;;;;9.60;99.90;;;;;;5073766;28;19913;-60
2021/12/26 03:24:07;;;;;;;;;;;9.60;99.90;;;;;;5072265;28;20381;-60
2021/12/26 03:26:33;;;;;;;;;;;9.60;99.90;;;;;;5070886;28;19909;-59
2021/12/26 03:28:58;;;;;;;;;;;9.60;99.90;;;;;;5070902;28;19920;-59
2021/12/26 03:31:24;;;;;;;;;;;9.60;99.90;;;;;;5055149;28;20358;-59
2021/12/26 03:33:49;;;;;;;;;;;9.60;99.90;;;;;;5073411;28;19924;-59
2021/12/26 03:36:15;;;;;;;;;;;9.60;99.90;;;;;;5073793;28;19912;-60
2021/12/26 03:38:40;;;;;;;;;;;9.60;99.90;;;;;;5071613;28;19915;-59
2021/12/26 03:41:06;;;;;;;;;;;9.50;99.90;;;;;;5073436;28;19915;-59
2021/12/26 03:43:32;;;;;;;;;;;9.50;99.90;;;;;;5073151;28;19912;-60
2021/12/26 03:45:58;;;;;;;;;;;9.50;99.90;;;;;;5072307;28;19913;-60
2021/12/26 03:48:24;;;;;;;;;;;9.60;99.90;;;;;;5073450;28;19912;-59
2021/12/26 03:50:50;;;;;;;;;;;9.50;99.90;;;;;;5071169;28;19913;-59
2021/12/26 03:53:16;;;;;;;;;;;9.60;99.90;;;;;;5072088;28;19928;-60
2021/12/26 03:55:42;;;;;;;;;;;9.60;99.90;;;;;;5073218;28;20442;-58
2021/12/26 03:58:07;;;;;;;;;;;9.60;99.90;;;;;;5073587;28;20042;-59
2021/12/26 04:00:33;;;;;;;;;;;9.60;99.90;;;;;;5072794;28;20293;-59
2021/12/26 04:02:59;;;;;;;;;;;9.50;99.90;;;;;;5072034;28;19916;-60
2021/12/26 04:05:24;;;;;;;;;;;9.50;99.90;;;;;;5071031;28;20285;-59
2021/12/26 04:07:50;;;;;;;;;;;9.50;99.90;;;;;;5072812;28;20022;-59
2021/12/26 04:10:16;;;;;;;;;;;9.50;99.90;;;;;;5072782;28;19920;-60
2021/12/26 04:12:46;;;;;;;;;;;9.50;99.90;;;;;;5072857;28;19928;-60
2021/12/26 04:15:14;;;;;;;;;;;9.60;99.90;;;;;;5056752;28;19920;-59
2021/12/26 04:17:39;;;;;;;;;;;9.60;99.90;;;;;;5066854;28;19933;-59
2021/12/26 04:20:06;;;;;;;;;;;9.60;99.90;;;;;;5072651;28;20341;-59
2021/12/26 04:22:32;;;;;;;;;;;9.60;99.90;;;;;;5072709;28;19912;-59
2021/12/26 04:24:57;;;;;;;;;;;9.50;99.90;;;;;;5071824;28;19919;-59
2021/12/26 04:27:24;;;;;;;;;;;9.50;99.90;;;;;;5073148;28;19916;-60
2021/12/26 04:29:50;;;;;;;;;;;9.50;99.90;;;;;;5070739;28;19999;-60
2021/12/26 04:32:16;;;;;;;;;;;9.60;99.90;;;;;;5071740;28;20452;-60
2021/12/26 04:34:41;;;;;;;;;;;9.60;99.90;;;;;;5072425;28;19913;-59
2021/12/26 04:37:07;;;;;;;;;;;9.60;99.90;;;;;;5073207;28;19927;-59
2021/12/26 04:39:32;;;;;;;;;;;9.60;99.90;;;;;;5076813;28;20458;-61
2021/12/26 04:41:57;;;;;;;;;;;9.50;99.90;;;;;;5075619;28;20015;-59
2021/12/26 04:44:25;;;;;;;;;;;9.60;99.90;;;;;;5074322;28;19935;-60
2021/12/26 04:46:51;;;;;;;;;;;9.60;99.90;;;;;;5076883;28;19920;-61
2021/12/26 04:49:16;;;;;;;;;;;9.50;99.90;;;;;;5076605;28;19913;-60
2021/12/26 04:51:42;;;;;;;;;;;9.60;99.90;;;;;;5076450;28;19918;-60
2021/12/26 04:54:07;;;;;;;;;;;9.60;99.90;;;;;;5075441;28;20006;-59
2021/12/26 04:56:33;;;;;;;;;;;9.60;99.90;;;;;;5075724;28;19915;-59
2021/12/26 04:58:59;;;;;;;;;;;9.60;99.90;;;;;;5076346;28;19916;-61
2021/12/26 05:01:24;;;;;;;;;;;9.60;99.90;;;;;;5076213;28;19912;-60
2021/12/26 05:03:50;;;;;;;;;;;9.60;99.90;;;;;;5074823;28;19947;-59
2021/12/26 05:06:15;;;;;;;;;;;9.60;99.90;;;;;;5076628;28;20350;-61
2021/12/26 05:08:41;;;;;;;;;;;9.60;99.90;;;;;;5074014;28;19908;-60
2021/12/26 05:11:06;;;;;;;;;;;9.60;99.90;;;;;;5076349;28;20396;-59
2021/12/26 05:13:32;;;;;;;;;;;9.60;99.90;;;;;;5075251;28;19921;-60
2021/12/26 05:15:59;;;;;;;;;;;9.60;99.90;;;;;;5075268;28;20222;-59
2021/12/26 05:18:25;;;;;;;;;;;9.60;99.90;;;;;;5075903;28;19912;-60
2021/12/26 05:20:50;;;;;;;;;;;9.60;99.90;;;;;;5074124;28;19908;-61
2021/12/26 05:23:16;;;;;;;;;;;9.60;99.90;;;;;;5075046;28;19909;-60
2021/12/26 05:25:42;;;;;;;;;;;9.60;99.90;;;;;;5057916;28;19916;-59
2021/12/26 05:28:07;;;;;;;;;;;9.60;99.90;;;;;;5075879;28;19927;-60
2021/12/26 05:30:33;;;;;;;;;;;9.50;99.90;;;;;;5076046;28;20004;-60
2021/12/26 05:32:58;;;;;;;;;;;9.50;99.90;;;;;;5073667;28;19982;-60
2021/12/26 05:35:24;;;;;;;;;;;9.50;99.90;;;;;;5071534;28;19916;-59
2021/12/26 05:37:49;;;;;;;;;;;9.60;99.90;;;;;;5075596;28;19912;-59
2021/12/26 05:40:15;;;;;;;;;;;9.50;99.90;;;;;;5075622;28;19924;-60
2021/12/26 05:42:42;;;;;;;;;;;9.60;99.90;;;;;;5073955;28;19939;-60
2021/12/26 05:45:08;;;;;;;;;;;9.60;99.90;;;;;;5074667;28;19996;-58
2021/12/26 05:47:34;;;;;;;;;;;9.60;99.90;;;;;;5074588;28;19938;-60
2021/12/26 05:50:00;;;;;;;;;;;9.50;99.90;;;;;;5074498;28;19912;-59
2021/12/26 05:52:27;;;;;;;;;;;9.60;99.90;;;;;;5075185;28;19926;-60
2021/12/26 05:54:52;;;;;;;;;;;9.60;99.90;;;;;;5075051;28;19920;-61
2021/12/26 05:57:18;;;;;;;;;;;9.60;99.90;;;;;;5075079;28;19916;-61
2021/12/26 05:59:44;;;;;;;;;;;9.70;99.90;;;;;;5073316;28;19919;-60
2021/12/26 06:02:09;;;;;;;;;;;9.60;99.90;;;;;;5073925;28;19923;-59
2021/12/26 06:04:35;;;;;;;;;;;9.60;99.90;;;;;;5075201;28;20012;-59
2021/12/26 06:07:01;;;;;;;;;;;9.70;99.90;;;;;;5075237;28;20293;-59
2021/12/26 06:09:26;;;;;;;;;;;9.60;99.90;;;;;;5074724;28;19942;-61
2021/12/26 06:11:52;;;;;;;;;;;9.70;99.90;;;;;;5072636;28;19912;-60
2021/12/26 06:14:17;;;;;;;;;;;9.70;99.90;;;;;;5075026;28;19916;-60
2021/12/26 06:16:43;;;;;;;;;;;9.70;99.90;;;;;;5075125;28;19908;-60
2021/12/26 06:19:08;;;;;;;;;;;9.70;99.90;;;;;;5074958;28;19916;-59
2021/12/26 06:21:34;;;;;;;;;;;9.70;99.90;;;;;;5073759;28;19908;-59
2021/12/26 06:23:59;;;;;;;;;;;9.70;99.90;;;;;;5072543;28;19957;-60
2021/12/26 06:26:26;;;;;;;;;;;9.70;99.90;;;;;;5075334;28;20709;-60
2021/12/26 06:28:52;;;;;;;;;;;9.70;99.90;;;;;;5075020;28;19915;-59
2021/12/26 06:31:18;;;;;;;;;;;9.70;99.90;;;;;;5074370;28;19913;-60
2021/12/26 06:33:44;;;;;;;;;;;9.60;99.90;;;;;;5074648;28;19927;-62
2021/12/26 06:36:10;;;;;;;;;;;9.70;99.90;;;;;;5073752;28;19912;-63
2021/12/26 06:38:36;;;;;;;;;;;9.60;99.90;;;;;;5072826;28;19923;-62
2021/12/26 06:41:02;;;;;;;;;;;9.60;99.90;;;;;;5073150;28;20421;-62
2021/12/26 06:43:27;;;;;;;;;;;9.70;99.90;;;;;;5074233;28;20008;-62
2021/12/26 06:45:54;;;;;;;;;;;9.70;99.90;;;;;;5074340;28;19947;-63
2021/12/26 06:48:20;;;;;;;;;;;9.70;99.90;;;;;;5074529;28;20002;-62
2021/12/26 06:50:46;;;;;;;;;;;9.70;99.90;;;;;;5066900;28;20012;-63
2021/12/26 06:53:12;;;;;;;;;;;9.70;99.90;;;;;;5074309;28;19920;-63
2021/12/26 06:55:38;;;;;;;;;;;9.70;99.90;;;;;;5074413;28;19908;-64
2021/12/26 06:58:03;;;;;;;;;;;9.70;99.90;;;;;;5074057;28;19979;-62
2021/12/26 07:00:29;;;;;;;;;;;9.70;99.90;;;;;;5072449;28;20281;-63
2021/12/26 07:02:54;;;;;;;;;;;9.70;99.90;;;;;;5071911;28;19917;-62
2021/12/26 07:05:20;;;;;;;;;;;9.70;99.90;;;;;;5074113;28;20385;-62
2021/12/26 07:07:46;;;;;;;;;;;9.70;99.90;;;;;;5073355;28;19962;-62
2021/12/26 07:10:12;;;;;;;;;;;9.70;99.90;;;;;;5073809;28;19927;-63
2021/12/26 07:12:38;;;;;;;;;;;9.70;99.90;;;;;;5074220;28;19958;-63
2021/12/26 07:15:05;;;;;;;;;;;9.70;99.90;;;;;;5072131;28;19981;-61
2021/12/26 07:17:30;;;;;;;;;;;9.70;99.90;;;;;;5072699;28;19913;-63
2021/12/26 07:19:56;;;;;;;;;;;9.70;99.90;;;;;;5072267;28;19909;-61
2021/12/26 07:22:21;;;;;;;;;;;9.80;99.90;;;;;;5072871;28;20340;-62
2021/12/26 07:24:47;;;;;;;;;;;9.80;99.90;;;;;;5073254;28;19908;-64
2021/12/26 07:27:13;;;;;;;;;;;9.70;99.90;;;;;;5056907;28;19955;-61
2021/12/26 07:29:39;;;;;;;;;;;9.80;99.90;;;;;;5071743;28;19913;-61
2021/12/26 07:32:05;;;;;;;;;;;9.80;99.90;;;;;;5073241;28;20408;-62
2021/12/26 07:34:31;;;;;;;;;;;9.80;99.90;;;;;;5073117;28;19912;-63
2021/12/26 07:36:56;;;;;;;;;;;9.80;99.90;;;;;;5070605;28;20297;-62
2021/12/26 07:39:22;;;;;;;;;;;9.80;99.90;;;;;;5056669;28;19916;-63
2021/12/26 07:41:47;;;;;;;;;;;9.80;99.90;;;;;;5070712;28;19955;-63
2021/12/26 07:44:13;;;;;;;;;;;9.80;99.90;;;;;;5070728;28;19924;-64
2021/12/26 07:46:39;;;;;;;;;;;9.80;99.90;;;;;;5072298;28;20439;-62
2021/12/26 07:49:04;;;;;;;;;;;9.80;99.90;;;;;;5068851;28;19978;-61
2021/12/26 07:51:30;;;;;;;;;;;9.70;99.90;;;;;;5058019;28;19912;-68
2021/12/26 07:54:00;;;;;;;;;;;9.80;99.90;;;;;;5068833;28;19916;-62
2021/12/26 07:56:25;;;;;;;;;;;9.70;99.90;;;;;;5062558;28;19995;-65
2021/12/26 07:58:51;;;;;;;;;;;9.70;99.90;;;;;;5066502;28;20412;-64
2021/12/26 08:01:17;;;;;;;;;;;9.80;99.90;;;;;;5069294;28;19912;-62
2021/12/26 08:03:42;;;;;;;;;;;9.80;99.90;;;;;;5052135;28;19951;-63
2021/12/26 08:06:09;;;;;;;;;;;9.80;99.90;;;;;;5069224;28;20033;-63
2021/12/26 08:08:36;;;;;;;;;;;9.90;99.90;;;;;;5066368;28;19916;-64
2021/12/26 08:11:02;;;;;;;;;;;9.90;99.90;;;;;;5065931;28;19935;-64
2021/12/26 08:13:30;;;;;;;;;;;9.90;99.90;;;;;;5066760;28;20045;-62
2021/12/26 08:15:55;;;;;;;;;;;9.90;99.90;;;;;;5066914;28;20010;-61
2021/12/26 08:18:21;;;;;;;;;;;9.90;99.90;;;;;;5067654;28;20392;-61
2021/12/26 08:20:46;;;;;;;;;;;9.90;99.90;;;;;;5069757;28;19908;-63
2021/12/26 08:23:12;;;;;;;;;;;10.00;99.90;;;;;;5068163;28;19916;-61
2021/12/26 08:25:37;;;;;;;;;;;10.00;99.90;;;;;;5065438;28;20266;-63
2021/12/26 08:28:03;;;;;;;;;;;9.90;99.90;;;;;;5061663;28;19921;-62
2021/12/26 08:30:30;;;;;;;;;;;10.00;99.90;;;;;;5063902;28;19921;-64
2021/12/26 08:32:59;;;;;;;;;;;10.00;99.90;;;;;;5066831;28;19920;-63
2021/12/26 08:35:24;;;;;;;;;;;10.00;99.90;;;;;;5067834;28;19916;-63
2021/12/26 08:37:50;;;;;;;;;;;10.10;99.90;;;;;;5068131;28;19919;-63
2021/12/26 08:40:15;;;;;;;;;;;10.10;99.90;;;;;;5067602;28;19913;-63
2021/12/26 08:42:41;;;;;;;;;;;10.10;99.90;;;;;;5063202;28;19995;-62
2021/12/26 08:45:07;;;;;;;;;;;10.10;99.90;;;;;;5065186;28;20983;-62
2021/12/26 08:47:33;;;;;;;;;;;10.10;99.90;;;;;;5066935;28;19974;-64
2021/12/26 08:49:58;;;;;;;;;;;10.10;99.90;;;;;;5064073;28;19913;-62
2021/12/26 08:52:24;;;;;;;;;;;10.20;99.90;;;;;;5064102;28;20003;-59
2021/12/26 08:54:49;;;;;;;;;;;10.20;99.90;;;;;;5063499;28;19970;-64
2021/12/26 08:57:18;;;;;;;;;;;10.20;99.90;;;;;;5068090;28;19966;-66
2021/12/26 08:59:43;;;;;;;;;;;10.30;99.90;;;;;;5068851;28;19913;-61
2021/12/26 09:02:09;;;;;;;;;;;10.30;99.90;;;;;;5063518;28;19958;-60
2021/12/26 09:04:35;;;;;;;;;;;10.30;99.90;;;;;;5063707;28;19916;-61
2021/12/26 09:07:01;;;;;;;;;;;10.30;99.90;;;;;;5063631;28;19923;-62
2021/12/26 09:09:29;;;;;;;;;;;10.40;99.90;;;;;;5064155;28;20297;-62
2021/12/26 09:11:55;;;;;;;;;;;10.40;99.90;;;;;;5066510;28;19964;-60
2021/12/26 09:14:20;;;;;;;;;;;10.40;99.90;;;;;;5065926;28;19920;-61
2021/12/26 09:16:46;;;;;;;;;;;10.40;99.90;;;;;;5049199;28;19918;-63
2021/12/26 09:19:11;;;;;;;;;;;10.40;99.90;;;;;;5049247;28;20015;-62
2021/12/26 09:21:37;;;;;;;;;;;10.50;99.90;;;;;;5063761;28;19923;-61
2021/12/26 09:24:03;;;;;;;;;;;10.50;99.90;;;;;;5066042;28;19936;-62
2021/12/26 09:26:29;;;;;;;;;;;10.50;99.90;;;;;;5070730;28;19923;-62
2021/12/26 09:28:54;;;;;;;;;;;10.50;99.90;;;;;;5066687;28;19916;-63
2021/12/26 09:31:20;;;;;;;;;;;10.60;99.90;;;;;;5067432;28;19973;-62
2021/12/26 09:33:45;;;;;;;;;;;10.60;99.90;;;;;;5070700;28;19939;-63
2021/12/26 09:36:11;;;;;;;;;;;10.60;99.90;;;;;;5071457;28;19956;-62
2021/12/26 09:38:36;;;;;;;;;;;10.60;99.90;;;;;;5071862;28;19913;-63
2021/12/26 09:41:02;;;;;;;;;;;10.60;99.90;;;;;;5066837;28;20316;-62
2021/12/26 09:43:27;;;;;;;;;;;10.60;99.90;;;;;;5066185;28;19928;-64
2021/12/26 09:45:53;;;;;;;;;;;10.70;99.90;;;;;;5066784;28;19919;-63
2021/12/26 09:48:19;;;;;;;;;;;10.70;99.90;;;;;;5066438;28;19924;-62
2021/12/26 09:50:44;;;;;;;;;;;10.70;99.90;;;;;;5071419;28;19999;-63
2021/12/26 09:53:10;;;;;;;;;;;10.70;99.90;;;;;;5066305;28;19919;-62
2021/12/26 09:55:35;;;;;;;;;;;10.70;99.90;;;;;;5070923;28;20838;-62
2021/12/26 09:58:01;;;;;;;;;;;10.80;99.90;;;;;;5066248;28;19912;-62
2021/12/26 10:00:26;;;;;;;;;;;10.80;99.90;;;;;;5069778;28;20365;-63
2021/12/26 10:03:11;;;;;;;;;;;10.80;99.90;;;;;;5069857;28;19935;-64
2021/12/26 10:05:56;;;;;;;;;;;10.80;99.90;;;;;;5070707;28;19913;-61
2021/12/26 10:08:21;;;;;;;;;;;10.90;99.90;;;;;;5069985;28;19916;-63
2021/12/26 10:11:05;;;;;;;;;;;10.90;99.90;;;;;;5064994;28;20013;-62
2021/12/26 10:13:37;;;;;;;;;;;10.90;99.90;;;;;;5065179;28;19913;-62
2021/12/26 10:16:02;;;;;;;;;;;10.90;99.90;;;;;;5069566;28;19913;-59
2021/12/26 10:18:29;;;;;;;;;;;11.00;99.90;;;;;;5066687;28;19959;-61
2021/12/26 10:20:54;;;;;;;;;;;11.00;99.90;;;;;;5069211;28;19912;-60
2021/12/26 10:23:26;;;;;;;;;;;11.00;99.90;;;;;;5067525;28;19969;-60
2021/12/26 10:25:52;;;;;;;;;;;11.00;99.90;;;;;;5065914;28;19912;-60
2021/12/26 10:28:17;;;;;;;;;;;11.00;99.90;;;;;;5059241;28;19920;-60
2021/12/26 10:30:43;;;;;;;;;;;11.00;99.90;;;;;;5065794;28;19935;-61
2021/12/26 10:33:09;;;;;;;;;;;11.00;99.90;;;;;;5070128;28;19955;-60
2021/12/26 10:35:35;;;;;;;;;;;11.00;99.90;;;;;;5070545;28;19963;-61
2021/12/26 10:38:00;;;;;;;;;;;11.10;99.90;;;;;;5065708;28;20381;-60
2021/12/26 10:40:27;;;;;;;;;;;11.10;99.90;;;;;;5063895;28;20340;-61
2021/12/26 10:42:54;;;;;;;;;;;11.10;99.90;;;;;;5065193;28;19921;-61
2021/12/26 10:45:21;;;;;;;;;;;11.10;99.90;;;;;;5065565;28;19917;-60
2021/12/26 10:47:52;;;;;;;;;;;11.10;99.90;;;;;;5070580;28;19913;-61
2021/12/26 10:50:19;;;;;;;;;;;11.10;99.90;;;;;;5070156;28;19913;-61
2021/12/26 10:52:52;;;;;;;;;;;11.10;99.90;;;;;;5065595;28;19917;-62
2021/12/26 10:55:19;;;;;;;;;;;11.10;99.90;;;;;;5068217;28;19912;-60
2021/12/26 10:57:46;;;;;;;;;;;11.10;99.90;;;;;;5065346;28;19955;-60
2021/12/26 11:00:18;;;;;;;;;;;11.10;99.90;;;;;;5065285;28;19913;-59
2021/12/26 11:02:54;;;;;;;;;;;11.10;99.90;;;;;;5066708;28;19917;-60
2021/12/26 11:05:22;;;;;;;;;;;11.10;99.90;;;;;;5069107;28;20647;-59
2021/12/26 11:07:57;;;;;;;;;;;11.10;99.90;;;;;;5065429;28;19962;-61
2021/12/26 11:10:31;;;;;;;;;;;11.00;99.90;;;;;;5065222;28;19924;-60
2021/12/26 11:12:58;;;;;;;;;;;11.00;99.90;;;;;;5068981;28;19912;-60
2021/12/26 11:15:26;;;;;;;;;;;11.00;99.90;;;;;;5064524;28;19942;-60
2021/12/26 11:17:56;;;;;;;;;;;10.90;99.90;;;;;;5068543;28;20326;-60
2021/12/26 11:20:29;;;;;;;;;;;10.90;99.90;;;;;;5069538;28;19985;-59
2021/12/26 11:22:55;;;;;;;;;;;10.90;99.90;;;;;;5062234;28;19921;-61
2021/12/26 11:25:21;;;;;;;;;;;10.90;99.90;;;;;;5068862;28;19999;-60
2021/12/26 11:27:47;;;;;;;;;;;10.90;99.90;;;;;;5064953;28;20373;-60
2021/12/26 11:30:12;;;;;;;;;;;10.90;99.90;;;;;;5065099;28;20006;-61
2021/12/26 11:32:38;;;;;;;;;;;10.90;99.90;;;;;;5043248;28;20297;-61
2021/12/26 11:35:04;;;;;;;;;;;10.90;99.90;;;;;;5068031;28;19974;-61
2021/12/26 11:37:30;;;;;;;;;;;10.90;99.90;;;;;;5064410;28;19924;-61
2021/12/26 11:39:57;;;;;;;;;;;10.90;99.90;;;;;;5064801;28;20293;-62
2021/12/26 11:42:26;;;;;;;;;;;11.00;99.90;;;;;;5064191;28;19921;-63
2021/12/26 11:44:54;;;;;;;;;;;11.10;99.90;;;;;;5068059;28;19991;-61
2021/12/26 11:47:21;;;;;;;;;;;11.20;99.90;;;;;;5068184;28;19970;-62
2021/12/26 11:50:03;;;;;;;;;;;11.20;99.90;;;;;;5065255;28;19917;-61
2021/12/26 11:52:37;;;;;;;;;;;11.30;99.90;;;;;;5066609;28;19912;-60
2021/12/26 11:55:13;;;;;;;;;;;11.50;99.90;;;;;;5064202;28;19916;-60
2021/12/26 11:57:45;;;;;;;;;;;11.60;99.90;;;;;;5064104;28;19919;-61
2021/12/26 12:00:13;;;;;;;;;;;11.70;99.90;;;;;;5066175;28;19948;-60
2021/12/26 12:02:44;;;;;;;;;;;11.80;99.90;;;;;;5069087;28;19924;-61
2021/12/26 12:05:11;;;;;;;;;;;11.90;99.90;;;;;;5065345;28;20442;-61
2021/12/26 12:08:06;;;;;;;;;;;11.90;99.90;;;;;;5065839;28;20381;-59
2021/12/26 12:10:41;;;;;;;;;;;12.00;99.90;;;;;;5050473;28;19927;-62
2021/12/26 12:13:07;;;;;;;;;;;12.00;99.90;;;;;;5067581;28;20002;-60
2021/12/26 12:15:40;;;;;;;;;;;12.10;99.90;;;;;;5064224;28;19913;-60
2021/12/26 12:18:11;;;;;;;;;;;12.10;99.90;;;;;;5065578;28;20172;-60
2021/12/26 12:20:36;;;;;;;;;;;12.20;99.90;;;;;;5068049;28;20006;-62
2021/12/26 12:23:08;;;;;;;;;;;12.30;99.90;;;;;;5063464;28;20015;-62
2021/12/26 12:25:34;;;;;;;;;;;12.30;99.90;;;;;;5064008;28;19913;-61
2021/12/26 12:28:10;;;;;;;;;;;12.40;99.90;;;;;;5068204;28;19919;-61
2021/12/26 12:30:40;;;;;;;;;;;12.40;99.90;;;;;;5067334;28;19952;-61
2021/12/26 12:33:16;;;;;;;;;;;12.50;99.90;;;;;;5065021;28;19916;-62
2021/12/26 12:35:49;;;;;;;;;;;12.60;99.90;;;;;;5068644;28;20013;-61
2021/12/26 12:38:26;;;;;;;;;;;12.70;99.90;;;;;;5068434;28;19912;-61
2021/12/26 12:40:51;;;;;;;;;;;12.70;99.90;;;;;;5061269;28;20373;-61
2021/12/26 12:43:19;;;;;;;;;;;12.70;99.90;;;;;;5067916;28;20080;-61
2021/12/26 12:45:55;;;;;;;;;;;12.70;99.90;;;;;;5060340;28;19936;-61
2021/12/26 12:48:20;;;;;;;;;;;12.60;99.90;;;;;;5063491;28;20056;-63
2021/12/26 12:50:46;;;;;;;;;;;12.60;99.90;;;;;;5068905;28;19999;-61
2021/12/26 12:53:31;;;;;;;;;;;12.40;99.90;;;;;;5068201;28;19913;-63
2021/12/26 12:55:57;;;;;;;;;;;12.30;99.90;;;;;;5061073;28;20006;-61
2021/12/26 12:58:26;;;;;;;;;;;12.30;99.90;;;;;;5069252;28;19999;-63
2021/12/26 13:00:51;;;;;;;;;;;12.30;99.90;;;;;;5071597;28;20066;-62
2021/12/26 13:03:18;;;;;;;;;;;12.30;99.90;;;;;;5072027;28;19999;-62
2021/12/26 13:05:45;;;;;;;;;;;12.30;99.90;;;;;;5072775;28;20773;-62
2021/12/26 13:08:12;;;;;;;;;;;12.30;99.90;;;;;;5072019;28;19920;-61
2021/12/26 13:10:38;;;;;;;;;;;12.30;99.90;;;;;;5070610;28;19982;-63
2021/12/26 13:13:10;;;;;;;;;;;12.20;99.90;;;;;;5070807;28;19920;-61
2021/12/26 13:15:46;;;;;;;;;;;12.20;99.90;;;;;;5071224;28;19934;-60
2021/12/26 13:18:28;;;;;;;;;;;12.10;99.90;;;;;;5070848;28;20377;-61
2021/12/26 13:20:56;;;;;;;;;;;12.10;99.90;;;;;;5070904;28;19913;-63
2021/12/26 13:23:22;;;;;;;;;;;12.10;99.90;;;;;;5070641;28;19921;-62
2021/12/26 13:25:51;;;;;;;;;;;12.10;99.90;;;;;;5070694;28;19924;-61
2021/12/26 13:28:16;;;;;;;;;;;12.20;99.90;;;;;;5070150;28;19924;-60
2021/12/26 13:30:44;;;;;;;;;;;12.20;99.90;;;;;;5071027;28;19917;-64
2021/12/26 13:33:18;;;;;;;;;;;12.20;99.90;;;;;;5071238;28;19928;-62
2021/12/26 13:35:44;;;;;;;;;;;12.30;99.90;;;;;;5071758;28;20297;-64
2021/12/26 13:38:09;;;;;;;;;;;12.30;99.90;;;;;;5070234;28;20388;-64
2021/12/26 13:40:37;;;;;;;;;;;12.40;99.90;;;;;;5071065;28;19912;-63
2021/12/26 13:43:03;;;;;;;;;;;12.40;99.90;;;;;;5069958;28;20384;-64
2021/12/26 13:45:32;;;;;;;;;;;12.20;99.90;;;;;;5070837;28;19917;-64
2021/12/26 13:47:58;;;;;;;;;;;12.20;99.90;;;;;;5071406;28;20000;-63
2021/12/26 13:50:24;;;;;;;;;;;12.10;99.90;;;;;;5071100;28;19998;-64
2021/12/26 13:53:04;;;;;;;;;;;12.10;99.90;;;;;;5069954;28;20375;-63
2021/12/26 13:55:34;;;;;;;;;;;12.00;99.90;;;;;;5068528;28;19913;-62
2021/12/26 13:58:00;;;;;;;;;;;12.00;99.90;;;;;;5070191;28;20385;-67
2021/12/26 14:00:26;;;;;;;;;;;11.90;99.90;;;;;;5070194;28;19913;-63
2021/12/26 14:02:53;;;;;;;;;;;11.80;99.90;;;;;;5070062;28;19927;-64
2021/12/26 14:05:20;;;;;;;;;;;11.80;99.90;;;;;;5070408;28;19920;-64
2021/12/26 14:07:51;;;;;;;;;;;11.80;99.90;;;;;;5052284;28;19916;-64
2021/12/26 14:10:19;;;;;;;;;;;11.80;99.90;;;;;;5068791;28;19940;-61
2021/12/26 14:12:51;;;;;;;;;;;11.80;99.90;;;;;;5066500;28;20006;-64
2021/12/26 14:15:34;;;;;;;;;;;11.70;99.90;;;;;;5068796;28;19917;-62
2021/12/26 14:18:16;;;;;;;;;;;11.70;99.90;;;;;;5069179;28;19923;-64
2021/12/26 14:20:43;;;;;;;;;;;11.70;99.90;;;;;;5070903;28;20404;-63
2021/12/26 14:23:18;;;;;;;;;;;11.70;99.90;;;;;;5068901;28;19924;-63